San Guillermo — XCAR9 — position and weather

sailwx.info

Track history (hours):
 
Tides and Currents Weather Stations Pressure Air Temp Water Temp Dewpoint Dewpoint Depression Visibility Wind Speed Wind Dir Waves Ship Positions

San Guillermo

Last reported at 2018-Jan-31 18:35 UTC. Time now 2018-Apr-20 01:14 UTC.
Position N 24°17' W 110°20'.
Warning: this ship's position is months out of date.

Length 116 m; draft 4.4 m.

Type: Cargo ship. MMSI: 345040013.

Date/timePositionNaut miles runAvg speedWind from/ knotsBaromVisibWave heightAir tempDewpointWater temp
2018-Jan-31 18:35N 24°17' W 110°20'0 0.0
2018-Jan-31 17:40N 24°17' W 110°20'0 0.0
2018-Jan-31 17:29N 24°17' W 110°20'0 0.0
2018-Jan-31 16:58N 24°17' W 110°20'1 2.9
2018-Jan-31 16:29N 24°15' W 110°20'712.3
2018-Jan-31 15:58N 24°22' W 110°20'2 0.1
2018-Jan-30 22:53N 24°22' W 110°19'512.8
2018-Jan-30 22:30N 24°18' W 110°22'2 2.4
2018-Jan-30 21:29N 24°17' W 110°20'0 0.0
2018-Jan-30 21:00N 24°17' W 110°20'0 0.0
2018-Jan-30 20:29N 24°17' W 110°20'0 0.0
2018-Jan-30 20:00N 24°17' W 110°20'0 0.0
2018-Jan-30 19:29N 24°17' W 110°20'0 0.0
2018-Jan-30 19:00N 24°17' W 110°20'0 0.0
2018-Jan-30 18:29N 24°17' W 110°20'0 0.0
2018-Jan-30 17:59N 24°17' W 110°20'0 0.0
2018-Jan-30 17:30N 24°17' W 110°20'0 0.0
2018-Jan-30 17:00N 24°17' W 110°20'0 0.0
2018-Jan-30 16:30N 24°17' W 110°20'0 0.0
2018-Jan-30 15:57N 24°17' W 110°20'0 0.0
2018-Jan-30 15:29N 24°17' W 110°20'0 0.0
2018-Jan-30 14:59N 24°17' W 110°20'2 3.4
2018-Jan-30 14:29N 24°17' W 110°21'5 0.2
2018-Jan-29 05:32N 24°22' W 110°19'113.8
2018-Jan-29 05:29N 24°22' W 110°20'713.3
2018-Jan-29 04:59N 24°15' W 110°21'1 3.0
2018-Jan-29 04:30N 24°17' W 110°20'0 0.0
2018-Jan-29 04:00N 24°17' W 110°20'0 0.0
2018-Jan-29 03:29N 24°17' W 110°20'0 0.0
2018-Jan-29 02:59N 24°17' W 110°20'0 0.0
2018-Jan-29 02:29N 24°17' W 110°20'0 0.0
2018-Jan-29 01:59N 24°17' W 110°20'0 0.0
2018-Jan-29 01:29N 24°17' W 110°20'0 0.0
2018-Jan-29 00:59N 24°17' W 110°20'0 0.0
2018-Jan-29 00:29N 24°17' W 110°20'0 0.0
2018-Jan-28 23:59N 24°17' W 110°20'0 0.0
2018-Jan-28 23:29N 24°17' W 110°20'0 0.0
2018-Jan-28 22:57N 24°17' W 110°20'0 0.0
2018-Jan-28 22:29N 24°17' W 110°20'0 0.0
2018-Jan-28 21:59N 24°17' W 110°20'0 0.0
2018-Jan-28 21:29N 24°17' W 110°20'0 0.0
2018-Jan-28 20:59N 24°17' W 110°20'0 0.0
2018-Jan-28 20:26N 24°17' W 110°20'0 0.0
2018-Jan-28 19:59N 24°17' W 110°20'0 0.2
2018-Jan-28 19:29N 24°17' W 110°20'1 2.8
2018-Jan-28 19:00N 24°16' W 110°21'7 0.2
2018-Jan-27 01:27N 24°23' W 110°18'611.9
2018-Jan-27 00:59N 24°18' W 110°21'2 4.2
2018-Jan-27 00:29N 24°17' W 110°20'0 0.0
2018-Jan-26 23:59N 24°17' W 110°20'0 0.0
2018-Jan-26 23:30N 24°17' W 110°20'0 0.0
2018-Jan-26 22:57N 24°17' W 110°20'0 0.0
2018-Jan-26 22:29N 24°17' W 110°20'0 0.0
2018-Jan-26 22:00N 24°17' W 110°20'0 0.0
2018-Jan-26 21:29N 24°17' W 110°20'0 0.0
2018-Jan-26 21:00N 24°17' W 110°20'0 0.0
2018-Jan-26 20:29N 24°17' W 110°20'0 0.0
2018-Jan-26 19:59N 24°17' W 110°20'0 0.0
2018-Jan-26 19:29N 24°17' W 110°20'0 0.0
2018-Jan-26 18:59N 24°17' W 110°20'0 0.0
2018-Jan-26 18:30N 24°17' W 110°20'0 0.0
2018-Jan-26 17:59N 24°17' W 110°20'0 0.0
2018-Jan-26 17:29N 24°17' W 110°20'0 0.0
2018-Jan-26 17:00N 24°17' W 110°20'0 0.0
2018-Jan-26 16:29N 24°17' W 110°20'0 0.0
2018-Jan-26 16:00N 24°17' W 110°20'0 0.0
2018-Jan-26 15:29N 24°17' W 110°20'0 0.0
2018-Jan-26 15:00N 24°17' W 110°20'1 2.5
2018-Jan-26 14:30N 24°16' W 110°21'510.2
2018-Jan-26 13:59N 24°21' W 110°21'5 0.1
2018-Jan-25 05:04N 24°24' W 110°16'213.4
2018-Jan-25 04:55N 24°23' W 110°18'512.8
2018-Jan-25 04:30N 24°18' W 110°21'2 4.2
2018-Jan-25 03:59N 24°17' W 110°20'0 0.0
2018-Jan-25 03:30N 24°17' W 110°20'0 0.0
2018-Jan-25 02:59N 24°17' W 110°20'0 0.0
2018-Jan-25 02:30N 24°17' W 110°20'0 0.0
2018-Jan-25 01:59N 24°17' W 110°20'0 0.0
2018-Jan-25 01:28N 24°17' W 110°20'0 0.0
2018-Jan-25 01:00N 24°17' W 110°20'0 0.0
2018-Jan-25 00:29N 24°17' W 110°20'0 0.0
2018-Jan-25 00:00N 24°17' W 110°20'0 0.0
2018-Jan-24 23:29N 24°17' W 110°20'0 0.0
2018-Jan-24 23:00N 24°17' W 110°20'0 0.0
2018-Jan-24 22:30N 24°17' W 110°20'0 0.0
2018-Jan-24 22:00N 24°17' W 110°20'0 0.0
2018-Jan-24 21:30N 24°17' W 110°20'0 0.8
2018-Jan-24 20:59N 24°16' W 110°20'2 4.9
2018-Jan-24 20:29N 24°18' W 110°21'5 0.3
2018-Jan-23 23:09N 24°23' W 110°18'213.5
2018-Jan-23 22:59N 24°21' W 110°20'612.6
2018-Jan-23 22:29N 24°15' W 110°20'2 3.2
2018-Jan-23 21:58N 24°17' W 110°20'0 0.0
2018-Jan-23 21:28N 24°17' W 110°20'0 0.0
2018-Jan-23 20:58N 24°17' W 110°20'0 0.0
2018-Jan-23 20:25N 24°17' W 110°20'0 0.0
2018-Jan-23 19:55N 24°17' W 110°20'0 0.0
2018-Jan-23 18:47N 24°17' W 110°20'0 0.0
2018-Jan-23 18:28N 24°17' W 110°20'0 0.0
2018-Jan-23 17:58N 24°17' W 110°20'0 0.0
2018-Jan-23 17:29N 24°17' W 110°20'2 3.6
2018-Jan-23 17:00N 24°15' W 110°20'3 6.3
2018-Jan-23 16:30N 24°18' W 110°21'5 0.2
2018-Jan-22 06:13N 24°22' W 110°18'211.5
2018-Jan-22 06:00N 24°21' W 110°21'612.3
2018-Jan-22 05:29N 24°15' W 110°20'2 3.6
2018-Jan-22 04:59N 24°17' W 110°20'0 0.0
2018-Jan-22 04:30N 24°17' W 110°20'0 0.0
2018-Jan-22 03:59N 24°17' W 110°20'0 0.0
2018-Jan-22 03:30N 24°17' W 110°20'0 0.0
2018-Jan-22 02:59N 24°17' W 110°20'0 0.0
2018-Jan-22 02:29N 24°17' W 110°20'0 0.0
2018-Jan-22 01:59N 24°17' W 110°20'0 0.0
2018-Jan-22 01:29N 24°17' W 110°20'0 0.0
2018-Jan-22 00:59N 24°17' W 110°20'0 0.0
2018-Jan-22 00:29N 24°17' W 110°20'0 0.0
2018-Jan-21 23:59N 24°17' W 110°20'0 0.0
2018-Jan-21 23:29N 24°17' W 110°20'0 0.0
2018-Jan-21 22:57N 24°17' W 110°20'0 0.0
2018-Jan-21 22:26N 24°17' W 110°20'0 0.0
2018-Jan-21 21:59N 24°17' W 110°20'0 0.0
2018-Jan-21 21:29N 24°17' W 110°20'0 0.0
2018-Jan-21 20:59N 24°17' W 110°20'0 0.0
2018-Jan-21 20:29N 24°17' W 110°20'0 0.0
2018-Jan-21 19:59N 24°17' W 110°20'0 0.0
2018-Jan-21 19:29N 24°17' W 110°20'0 0.0
2018-Jan-21 18:59N 24°17' W 110°20'  
Track history (hours):
 
Tides and Currents Weather Stations Pressure Air Temp Water Temp Dewpoint Dewpoint Depression Visibility Wind Speed Wind Dir Waves Ship Positions

San Guillermo

Last reported at 2018-Jan-31 18:35 UTC. Time now 2018-Apr-20 01:14 UTC.
Position N 24°17' W 110°20'.
Warning: this ship's position is months out of date.

Length 116 m; draft 4.4 m.

Type: Cargo ship. MMSI: 345040013.

Date/timePositionNaut miles runAvg speedWind from/ knotsBaromVisibWave heightAir tempDewpointWater temp
2018-Jan-31 18:35N 24°17' W 110°20'0 0.0
2018-Jan-31 17:40N 24°17' W 110°20'0 0.0
2018-Jan-31 17:29N 24°17' W 110°20'0 0.0
2018-Jan-31 16:58N 24°17' W 110°20'1 2.9
2018-Jan-31 16:29N 24°15' W 110°20'712.3
2018-Jan-31 15:58N 24°22' W 110°20'2 0.1
2018-Jan-30 22:53N 24°22' W 110°19'512.8
2018-Jan-30 22:30N 24°18' W 110°22'2 2.4
2018-Jan-30 21:29N 24°17' W 110°20'0 0.0
2018-Jan-30 21:00N 24°17' W 110°20'0 0.0
2018-Jan-30 20:29N 24°17' W 110°20'0 0.0
2018-Jan-30 20:00N 24°17' W 110°20'0 0.0
2018-Jan-30 19:29N 24°17' W 110°20'0 0.0
2018-Jan-30 19:00N 24°17' W 110°20'0 0.0
2018-Jan-30 18:29N 24°17' W 110°20'0 0.0
2018-Jan-30 17:59N 24°17' W 110°20'0 0.0
2018-Jan-30 17:30N 24°17' W 110°20'0 0.0
2018-Jan-30 17:00N 24°17' W 110°20'0 0.0
2018-Jan-30 16:30N 24°17' W 110°20'0 0.0
2018-Jan-30 15:57N 24°17' W 110°20'0 0.0
2018-Jan-30 15:29N 24°17' W 110°20'0 0.0
2018-Jan-30 14:59N 24°17' W 110°20'2 3.4
2018-Jan-30 14:29N 24°17' W 110°21'5 0.2
2018-Jan-29 05:32N 24°22' W 110°19'113.8
2018-Jan-29 05:29N 24°22' W 110°20'713.3
2018-Jan-29 04:59N 24°15' W 110°21'1 3.0
2018-Jan-29 04:30N 24°17' W 110°20'0 0.0
2018-Jan-29 04:00N 24°17' W 110°20'0 0.0
2018-Jan-29 03:29N 24°17' W 110°20'0 0.0
2018-Jan-29 02:59N 24°17' W 110°20'0 0.0
2018-Jan-29 02:29N 24°17' W 110°20'0 0.0
2018-Jan-29 01:59N 24°17' W 110°20'0 0.0
2018-Jan-29 01:29N 24°17' W 110°20'0 0.0
2018-Jan-29 00:59N 24°17' W 110°20'0 0.0
2018-Jan-29 00:29N 24°17' W 110°20'0 0.0
2018-Jan-28 23:59N 24°17' W 110°20'0 0.0
2018-Jan-28 23:29N 24°17' W 110°20'0 0.0
2018-Jan-28 22:57N 24°17' W 110°20'0 0.0
2018-Jan-28 22:29N 24°17' W 110°20'0 0.0
2018-Jan-28 21:59N 24°17' W 110°20'0 0.0
2018-Jan-28 21:29N 24°17' W 110°20'0 0.0
2018-Jan-28 20:59N 24°17' W 110°20'0 0.0
2018-Jan-28 20:26N 24°17' W 110°20'0 0.0
2018-Jan-28 19:59N 24°17' W 110°20'0 0.2
2018-Jan-28 19:29N 24°17' W 110°20'1 2.8
2018-Jan-28 19:00N 24°16' W 110°21'7 0.2
2018-Jan-27 01:27N 24°23' W 110°18'611.9
2018-Jan-27 00:59N 24°18' W 110°21'2 4.2
2018-Jan-27 00:29N 24°17' W 110°20'0 0.0
2018-Jan-26 23:59N 24°17' W 110°20'0 0.0
2018-Jan-26 23:30N 24°17' W 110°20'0 0.0
2018-Jan-26 22:57N 24°17' W 110°20'0 0.0
2018-Jan-26 22:29N 24°17' W 110°20'0 0.0
2018-Jan-26 22:00N 24°17' W 110°20'0 0.0
2018-Jan-26 21:29N 24°17' W 110°20'0 0.0
2018-Jan-26 21:00N 24°17' W 110°20'0 0.0
2018-Jan-26 20:29N 24°17' W 110°20'0 0.0
2018-Jan-26 19:59N 24°17' W 110°20'0 0.0
2018-Jan-26 19:29N 24°17' W 110°20'0 0.0
2018-Jan-26 18:59N 24°17' W 110°20'0 0.0
2018-Jan-26 18:30N 24°17' W 110°20'0 0.0
2018-Jan-26 17:59N 24°17' W 110°20'0 0.0
2018-Jan-26 17:29N 24°17' W 110°20'0 0.0
2018-Jan-26 17:00N 24°17' W 110°20'0 0.0
2018-Jan-26 16:29N 24°17' W 110°20'0 0.0
2018-Jan-26 16:00N 24°17' W 110°20'0 0.0
2018-Jan-26 15:29N 24°17' W 110°20'0 0.0
2018-Jan-26 15:00N 24°17' W 110°20'1 2.5
2018-Jan-26 14:30N 24°16' W 110°21'510.2
2018-Jan-26 13:59N 24°21' W 110°21'5 0.1
2018-Jan-25 05:04N 24°24' W 110°16'213.4
2018-Jan-25 04:55N 24°23' W 110°18'512.8
2018-Jan-25 04:30N 24°18' W 110°21'2 4.2
2018-Jan-25 03:59N 24°17' W 110°20'0 0.0
2018-Jan-25 03:30N 24°17' W 110°20'0 0.0
2018-Jan-25 02:59N 24°17' W 110°20'0 0.0
2018-Jan-25 02:30N 24°17' W 110°20'0 0.0
2018-Jan-25 01:59N 24°17' W 110°20'0 0.0
2018-Jan-25 01:28N 24°17' W 110°20'0 0.0
2018-Jan-25 01:00N 24°17' W 110°20'0 0.0
2018-Jan-25 00:29N 24°17' W 110°20'0 0.0
2018-Jan-25 00:00N 24°17' W 110°20'0 0.0
2018-Jan-24 23:29N 24°17' W 110°20'0 0.0
2018-Jan-24 23:00N 24°17' W 110°20'0 0.0
2018-Jan-24 22:30N 24°17' W 110°20'0 0.0
2018-Jan-24 22:00N 24°17' W 110°20'0 0.0
2018-Jan-24 21:30N 24°17' W 110°20'0 0.8
2018-Jan-24 20:59N 24°16' W 110°20'2 4.9
2018-Jan-24 20:29N 24°18' W 110°21'5 0.3
2018-Jan-23 23:09N 24°23' W 110°18'213.5
2018-Jan-23 22:59N 24°21' W 110°20'612.6
2018-Jan-23 22:29N 24°15' W 110°20'2 3.2
2018-Jan-23 21:58N 24°17' W 110°20'0 0.0
2018-Jan-23 21:28N 24°17' W 110°20'0 0.0
2018-Jan-23 20:58N 24°17' W 110°20'0 0.0
2018-Jan-23 20:25N 24°17' W 110°20'0 0.0
2018-Jan-23 19:55N 24°17' W 110°20'0 0.0
2018-Jan-23 18:47N 24°17' W 110°20'0 0.0
2018-Jan-23 18:28N 24°17' W 110°20'0 0.0
2018-Jan-23 17:58N 24°17' W 110°20'0 0.0
2018-Jan-23 17:29N 24°17' W 110°20'2 3.6
2018-Jan-23 17:00N 24°15' W 110°20'3 6.3
2018-Jan-23 16:30N 24°18' W 110°21'5 0.2
2018-Jan-22 06:13N 24°22' W 110°18'211.5
2018-Jan-22 06:00N 24°21' W 110°21'612.3
2018-Jan-22 05:29N 24°15' W 110°20'2 3.6
2018-Jan-22 04:59N 24°17' W 110°20'0 0.0
2018-Jan-22 04:30N 24°17' W 110°20'0 0.0
2018-Jan-22 03:59N 24°17' W 110°20'0 0.0
2018-Jan-22 03:30N 24°17' W 110°20'0 0.0
2018-Jan-22 02:59N 24°17' W 110°20'0 0.0
2018-Jan-22 02:29N 24°17' W 110°20'0 0.0
2018-Jan-22 01:59N 24°17' W 110°20'0 0.0
2018-Jan-22 01:29N 24°17' W 110°20'0 0.0
2018-Jan-22 00:59N 24°17' W 110°20'0 0.0
2018-Jan-22 00:29N 24°17' W 110°20'0 0.0
2018-Jan-21 23:59N 24°17' W 110°20'0 0.0
2018-Jan-21 23:29N 24°17' W 110°20'0 0.0
2018-Jan-21 22:57N 24°17' W 110°20'0 0.0
2018-Jan-21 22:26N 24°17' W 110°20'0 0.0
2018-Jan-21 21:59N 24°17' W 110°20'0 0.0
2018-Jan-21 21:29N 24°17' W 110°20'0 0.0
2018-Jan-21 20:59N 24°17' W 110°20'0 0.0
2018-Jan-21 20:29N 24°17' W 110°20'0 0.0
2018-Jan-21 19:59N 24°17' W 110°20'0 0.0
2018-Jan-21 19:29N 24°17' W 110°20'0 0.0
2018-Jan-21 18:59N 24°17' W 110°20'  

Dump ship's entire track history